Terminal Aerodrome Forecast
Issued by NWS Jackson, KY

Home | Current Version | Previous Version | Text Only | Print | Product List | Glossary Off
Versions: 1 2 3 4 5 6 7 8 9 10 11 12 13 14 15 16 17 18

000
FTUS43 KJKL 021700
TAFLOZ
TAF
KLOZ 021739Z 0218/0318 23008G16KT P6SM VCTS SCT030CB BKN100
      TEMPO 0220/0222 VRB20G30KT 3SM TSRA BKN020CB OVC030
     FM030100 VRB03KT P6SM SCT050
     FM030700 00000KT 5SM BR FEW050
     FM030900 00000KT 1/2SM FG OVC002
     FM031300 00000KT 4SM HZ OVC007
     FM031400 00000KT P6SM OVC015
     FM031500 00000KT P6SM OVC050=

USA.gov is the U.S. government's official web portal to all federal, state and local government web resources and services.